Time;durP1;ratioP1;P1;durP2;ratioP2;P2;SDS_P1;SDS_P2;PMS_P1;PMS_P2;Temp;Humidity;BMP_temperature;BMP_pressure;BME280_temperature;BME280_humidity;BME280_pressure;Samples;Min_cycle;Max_cycle;Signal;HPM_P1;HPM_P2
2022/06/29 00:00:12;;;;;;;2.80;1.83;;;19.40;99.90;;;;;;5076869;28;20439;-52
2022/06/29 00:02:39;;;;;;;2.13;2.03;;;19.40;99.90;;;;;;5076870;28;20538;-54
2022/06/29 00:05:07;;;;;;;3.40;2.07;;;19.10;99.90;;;;;;5076687;28;20450;-53
2022/06/29 00:07:34;;;;;;;1.70;1.60;;;19.10;99.90;;;;;;5076550;28;20542;-55
2022/06/29 00:10:00;;;;;;;1.87;1.77;;;19.10;99.90;;;;;;5076493;28;20861;-55
2022/06/29 00:12:27;;;;;;;2.90;2.00;;;19.00;99.90;;;;;;5076420;28;20894;-56
2022/06/29 00:14:55;;;;;;;4.00;2.40;;;19.10;99.90;;;;;;5076324;28;21011;-52
2022/06/29 00:17:23;;;;;;;2.13;2.03;;;19.10;99.90;;;;;;5076411;28;20447;-54
2022/06/29 00:19:51;;;;;;;2.10;2.00;;;19.10;99.90;;;;;;5076369;28;20448;-56
2022/06/29 00:22:17;;;;;;;2.20;2.00;;;19.00;99.90;;;;;;5076199;28;20454;-55
2022/06/29 00:24:44;;;;;;;2.10;2.00;;;18.90;99.90;;;;;;5075980;28;20479;-54
2022/06/29 00:27:10;;;;;;;2.40;2.20;;;18.90;99.90;;;;;;5076117;28;20930;-58
2022/06/29 00:29:37;;;;;;;2.60;1.77;;;18.90;99.90;;;;;;5076252;28;20485;-55
2022/06/29 00:32:04;;;;;;;3.03;1.90;;;18.80;99.90;;;;;;5075960;28;20958;-56
2022/06/29 00:34:32;;;;;;;2.43;2.33;;;18.80;99.90;;;;;;5076002;28;20449;-55
2022/06/29 00:36:58;;;;;;;2.60;2.40;;;18.70;99.90;;;;;;5076461;28;20889;-53
2022/06/29 00:39:25;;;;;;;2.67;2.10;;;18.80;99.90;;;;;;5075761;28;20443;-55
2022/06/29 00:41:51;;;;;;;3.70;2.83;;;18.80;99.90;;;;;;5076048;28;20995;-53
2022/06/29 00:44:19;;;;;;;2.10;2.00;;;18.70;99.90;;;;;;5075713;28;20952;-52
2022/06/29 00:46:48;;;;;;;2.10;1.93;;;18.60;99.90;;;;;;5075664;28;20994;-55
2022/06/29 00:49:15;;;;;;;2.23;2.13;;;18.60;99.90;;;;;;5075801;28;20451;-54
2022/06/29 00:51:45;;;;;;;2.30;2.20;;;18.60;99.90;;;;;;5075696;28;20447;-57
2022/06/29 00:54:15;;;;;;;3.30;2.73;;;18.60;99.90;;;;;;5075665;28;20466;-57
2022/06/29 00:56:43;;;;;;;2.80;2.63;;;18.70;99.90;;;;;;5075647;28;20533;-53
2022/06/29 00:59:13;;;;;;;2.20;2.10;;;18.60;99.90;;;;;;5075726;28;20487;-52
2022/06/29 01:01:41;;;;;;;2.00;1.90;;;18.50;99.90;;;;;;5075652;28;20833;-55
2022/06/29 01:04:07;;;;;;;2.10;2.00;;;18.50;99.90;;;;;;5075415;28;20841;-54
2022/06/29 01:06:34;;;;;;;2.40;2.17;;;18.40;99.90;;;;;;5075398;28;20941;-54
2022/06/29 01:09:03;;;;;;;2.60;2.37;;;18.30;99.90;;;;;;5075539;28;20479;-56
2022/06/29 01:11:29;;;;;;;2.73;2.50;;;18.30;99.90;;;;;;5075514;28;20532;-54
2022/06/29 01:13:56;;;;;;;2.83;2.40;;;18.30;99.90;;;;;;5075346;28;20451;-56
2022/06/29 01:16:22;;;;;;;2.50;2.40;;;18.30;99.90;;;;;;5075333;28;20451;-56
2022/06/29 01:18:49;;;;;;;2.20;2.10;;;18.30;99.90;;;;;;5075219;28;20478;-57
2022/06/29 01:21:19;;;;;;;2.73;2.53;;;18.20;99.90;;;;;;5075114;28;20882;-56
2022/06/29 01:23:47;;;;;;;3.13;2.83;;;18.20;99.90;;;;;;5075280;28;20479;-55
2022/06/29 01:26:14;;;;;;;3.00;2.80;;;18.30;99.90;;;;;;5075011;28;20960;-57
2022/06/29 01:28:43;;;;;;;2.80;2.60;;;18.40;99.90;;;;;;5075047;28;20447;-55
2022/06/29 01:31:14;;;;;;;2.90;2.70;;;18.50;99.90;;;;;;5075034;28;20447;-55
2022/06/29 01:33:40;;;;;;;3.37;3.17;;;18.40;99.90;;;;;;5074913;28;20448;-52
2022/06/29 01:36:07;;;;;;;2.67;2.57;;;18.40;99.90;;;;;;5074808;28;20970;-56
2022/06/29 01:38:36;;;;;;;2.83;2.73;;;18.30;99.90;;;;;;5074961;28;20443;-53
2022/06/29 01:41:04;;;;;;;3.27;3.00;;;18.40;99.90;;;;;;5074840;28;20539;-55
2022/06/29 01:43:31;;;;;;;2.73;2.63;;;18.40;99.90;;;;;;5074769;28;20932;-52
2022/06/29 01:45:57;;;;;;;3.03;2.50;;;18.40;99.90;;;;;;5074586;28;20454;-55
2022/06/29 01:48:24;;;;;;;2.90;2.37;;;18.30;99.90;;;;;;5074573;28;21015;-53
2022/06/29 01:50:50;;;;;;;2.90;2.70;;;18.40;99.90;;;;;;5074732;28;20474;-54
2022/06/29 01:53:17;;;;;;;2.70;2.50;;;18.40;99.90;;;;;;5074480;28;20942;-55
2022/06/29 01:55:44;;;;;;;2.30;2.20;;;18.50;99.90;;;;;;5074594;28;20456;-56
2022/06/29 01:58:12;;;;;;;2.57;2.47;;;18.50;99.90;;;;;;5074321;28;20481;-56
2022/06/29 02:00:38;;;;;;;3.63;2.80;;;18.70;99.90;;;;;;5074339;28;20530;-55
2022/06/29 02:03:05;;;;;;;2.60;2.50;;;18.80;99.90;;;;;;5073712;28;20526;-56
2022/06/29 02:05:32;;;;;;;2.40;2.20;;;18.90;99.90;;;;;;5074346;28;20494;-55
2022/06/29 02:07:58;;;;;;;2.87;2.57;;;19.00;99.90;;;;;;5074309;28;20884;-54
2022/06/29 02:10:25;;;;;;;4.00;2.80;;;19.10;99.90;;;;;;5074313;28;20447;-54
2022/06/29 02:12:51;;;;;;;2.60;2.50;;;19.10;99.90;;;;;;5074116;28;20469;-56
2022/06/29 02:15:19;;;;;;;2.90;2.70;;;18.80;99.90;;;;;;5074005;28;20454;-53
2022/06/29 02:17:46;;;;;;;2.70;2.50;;;18.60;99.90;;;;;;5074175;28;20539;-53
2022/06/29 02:20:12;;;;;;;6.73;2.90;;;18.50;99.90;;;;;;5074110;28;20810;-56
2022/06/29 02:22:40;;;;;;;3.20;3.00;;;18.60;99.90;;;;;;5074068;28;20508;-51
2022/06/29 02:25:08;;;;;;;3.30;2.63;;;18.70;99.90;;;;;;5073830;28;20479;-57
2022/06/29 02:27:38;;;;;;;2.43;2.33;;;18.60;99.90;;;;;;5073849;28;20452;-56
2022/06/29 02:30:05;;;;;;;2.80;2.60;;;18.40;99.90;;;;;;5074019;28;20439;-53
2022/06/29 02:35:18;;;;;;;2.63;2.53;;;18.40;99.90;;;;;;5073701;28;20579;-53
2022/06/29 02:37:44;;;;;;;3.00;2.80;;;18.40;99.90;;;;;;5073670;28;20453;-53
2022/06/29 02:40:11;;;;;;;6.03;2.93;;;18.50;99.90;;;;;;5073563;28;20454;-54
2022/06/29 02:42:38;;;;;;;2.93;2.73;;;18.40;99.90;;;;;;5073659;28;20538;-51
2022/06/29 02:45:05;;;;;;;3.23;2.93;;;18.40;99.90;;;;;;5073611;28;20489;-55
2022/06/29 02:47:33;;;;;;;3.30;3.10;;;18.50;99.90;;;;;;5073507;28;20879;-54
2022/06/29 02:50:00;;;;;;;3.17;2.97;;;18.40;99.90;;;;;;5073576;28;20447;-56
2022/06/29 02:52:26;;;;;;;2.77;2.67;;;18.40;99.90;;;;;;5073480;28;20538;-54
2022/06/29 02:54:53;;;;;;;4.53;3.10;;;18.30;99.90;;;;;;5073325;28;20454;-55
2022/06/29 02:57:20;;;;;;;3.20;3.00;;;18.30;99.90;;;;;;5073165;28;20989;-54
2022/06/29 02:59:46;;;;;;;3.27;2.97;;;18.20;99.90;;;;;;5073477;28;20474;-55
2022/06/29 03:02:13;;;;;;;4.47;2.80;;;18.20;99.90;;;;;;5073334;28;20538;-53
2022/06/29 03:04:41;;;;;;;3.90;3.40;;;18.10;99.90;;;;;;5073167;28;21015;-56
2022/06/29 03:07:07;;;;;;;5.47;2.87;;;18.10;99.90;;;;;;5073425;28;21011;-56
2022/06/29 03:09:33;;;;;;;3.37;3.07;;;18.10;99.90;;;;;;5073158;28;20538;-54
2022/06/29 03:12:00;;;;;;;3.57;3.27;;;17.90;99.90;;;;;;5073295;28;20453;-56
2022/06/29 03:14:27;;;;;;;3.33;3.10;;;17.90;99.90;;;;;;5072482;28;20443;-57
2022/06/29 03:16:53;;;;;;;3.13;2.80;;;18.00;99.90;;;;;;5073241;28;20542;-55
2022/06/29 03:19:20;;;;;;;3.07;2.87;;;18.00;99.90;;;;;;5073043;28;21000;-54
2022/06/29 03:21:48;;;;;;;3.17;2.97;;;17.90;99.90;;;;;;5072996;28;20444;-54
2022/06/29 03:24:14;;;;;;;2.70;2.50;;;17.80;99.90;;;;;;5073145;28;20471;-56
2022/06/29 03:26:41;;;;;;;3.50;3.20;;;17.80;99.90;;;;;;5073090;28;20451;-56
2022/06/29 03:29:07;;;;;;;3.80;3.07;;;17.90;99.90;;;;;;5073076;28;20780;-55
2022/06/29 03:31:34;;;;;;;5.70;3.27;;;17.80;99.90;;;;;;5073022;28;20451;-57
2022/06/29 03:34:01;;;;;;;3.70;3.40;;;17.90;99.90;;;;;;5072919;28;20458;-56
2022/06/29 03:36:27;;;;;;;3.10;2.90;;;17.90;99.90;;;;;;5072801;28;20574;-56
2022/06/29 03:38:55;;;;;;;4.50;3.10;;;18.00;99.90;;;;;;5073054;28;20848;-57
2022/06/29 03:41:22;;;;;;;2.90;2.70;;;18.00;99.90;;;;;;5072971;28;20454;-56
2022/06/29 03:43:48;;;;;;;3.03;2.77;;;17.90;99.90;;;;;;5072868;28;20538;-54
2022/06/29 03:46:14;;;;;;;2.77;2.67;;;18.00;99.90;;;;;;5072739;28;20546;-57
2022/06/29 03:48:41;;;;;;;3.27;3.07;;;17.90;99.90;;;;;;5072801;28;20447;-57
2022/06/29 03:51:08;;;;;;;4.63;2.80;;;18.00;99.90;;;;;;5072698;28;20444;-57
2022/06/29 03:53:34;;;;;;;3.07;2.87;;;17.90;99.90;;;;;;5072839;28;20455;-56
2022/06/29 03:56:02;;;;;;;2.97;2.77;;;17.90;99.90;;;;;;5072711;28;20842;-56
2022/06/29 03:58:28;;;;;;;2.90;2.70;;;17.90;99.90;;;;;;5072767;28;20457;-56
2022/06/29 04:00:55;;;;;;;2.60;2.40;;;18.00;99.90;;;;;;5072593;28;20455;-56
2022/06/29 04:03:21;;;;;;;3.07;2.87;;;17.80;99.90;;;;;;5072548;28;20448;-56
2022/06/29 04:05:48;;;;;;;3.43;2.90;;;17.90;99.90;;;;;;5072480;28;20486;-56
2022/06/29 04:08:14;;;;;;;3.17;2.87;;;17.90;99.90;;;;;;5072702;28;20810;-55
2022/06/29 04:10:41;;;;;;;2.57;2.20;;;18.00;99.90;;;;;;5072694;28;20447;-56
2022/06/29 04:13:09;;;;;;;2.97;2.70;;;18.00;99.90;;;;;;5072401;28;20997;-57
2022/06/29 04:15:35;;;;;;;3.63;2.70;;;18.00;99.90;;;;;;5072535;28;20448;-56
2022/06/29 04:18:02;;;;;;;3.30;3.00;;;17.90;99.90;;;;;;5072444;28;20448;-57
2022/06/29 04:23:13;;;;;;;3.50;3.27;;;17.90;99.90;;;;;;5072486;28;20493;-57
2022/06/29 04:25:40;;;;;;;3.53;3.17;;;17.90;99.90;;;;;;5073692;28;20485;-54
2022/06/29 04:28:07;;;;;;;3.10;2.60;;;17.90;99.90;;;;;;5076050;28;20463;-56
2022/06/29 04:30:35;;;;;;;10.40;2.90;;;18.10;99.90;;;;;;5076009;28;20453;-55
2022/06/29 04:33:01;;;;;;;3.47;3.17;;;18.10;99.90;;;;;;5076285;28;20470;-56
2022/06/29 04:35:28;;;;;;;2.87;2.77;;;18.10;99.90;;;;;;5076162;28;20537;-56
2022/06/29 04:37:54;;;;;;;2.70;2.60;;;18.20;99.90;;;;;;5076101;28;20451;-55
2022/06/29 04:40:21;;;;;;;3.00;2.80;;;18.10;99.90;;;;;;5075893;28;20453;-55
2022/06/29 04:42:47;;;;;;;3.07;2.80;;;18.20;99.90;;;;;;5075826;28;20451;-56
2022/06/29 04:47:59;;;;;;;4.40;3.13;;;18.40;99.90;;;;;;5075545;28;20777;-55
2022/06/29 04:50:25;;;;;;;3.20;2.73;;;18.40;99.90;;;;;;5075856;28;20469;-56
2022/06/29 04:52:52;;;;;;;2.70;2.50;;;18.50;99.90;;;;;;5075696;28;20731;-55
2022/06/29 04:55:18;;;;;;;3.07;2.77;;;18.50;99.90;;;;;;5075644;28;20545;-57
2022/06/29 04:57:45;;;;;;;4.00;2.73;;;18.70;99.90;;;;;;5075295;28;20477;-57
2022/06/29 05:00:12;;;;;;;4.43;3.77;;;18.60;99.90;;;;;;5075706;28;20538;-57
2022/06/29 05:02:39;;;;;;;2.60;2.50;;;18.70;99.90;;;;;;5075622;28;20450;-57
2022/06/29 05:05:08;;;;;;;3.03;2.83;;;18.60;99.90;;;;;;5075576;28;20489;-54
2022/06/29 05:07:34;;;;;;;2.87;2.73;;;18.60;99.90;;;;;;5075626;28;20452;-56
2022/06/29 05:10:01;;;;;;;2.83;2.63;;;18.60;99.90;;;;;;5075354;28;20556;-57
2022/06/29 05:12:27;;;;;;;2.50;2.40;;;18.70;99.90;;;;;;5075566;28;20447;-54
2022/06/29 05:14:54;;;;;;;2.53;2.43;;;18.70;99.90;;;;;;5075350;28;20551;-53
2022/06/29 05:17:20;;;;;;;7.53;2.70;;;18.80;99.90;;;;;;5075349;28;20448;-55
2022/06/29 05:19:47;;;;;;;2.37;2.27;;;19.00;99.90;;;;;;5075189;28;20448;-53
2022/06/29 05:22:15;;;;;;;3.50;2.80;;;19.10;99.90;;;;;;5075128;28;20454;-51
2022/06/29 05:24:41;;;;;;;2.60;2.40;;;19.20;99.90;;;;;;5074925;28;20477;-53
2022/06/29 05:27:08;;;;;;;4.30;2.93;;;19.20;99.90;;;;;;5075232;28;20950;-53
2022/06/29 05:29:34;;;;;;;2.70;2.50;;;19.10;99.90;;;;;;5075045;28;20451;-55
2022/06/29 05:32:01;;;;;;;3.80;2.93;;;19.30;99.90;;;;;;5075089;28;20865;-54
2022/06/29 05:34:27;;;;;;;3.70;3.40;;;19.30;99.90;;;;;;5074862;28;20538;-55
2022/06/29 05:36:54;;;;;;;6.10;2.67;;;19.60;99.90;;;;;;5073842;28;20462;-54
2022/06/29 05:39:22;;;;;;;2.60;2.40;;;19.80;99.90;;;;;;5074575;28;20453;-53
2022/06/29 05:41:48;;;;;;;2.47;2.30;;;19.90;99.90;;;;;;5074833;28;20450;-52
2022/06/29 05:44:15;;;;;;;2.30;2.03;;;20.00;99.90;;;;;;5074672;28;20446;-54
2022/06/29 05:46:41;;;;;;;2.33;2.23;;;20.20;99.90;;;;;;5074341;28;21029;-55
2022/06/29 05:49:08;;;;;;;4.27;2.50;;;;;;;;;;5074563;28;20542;-55
2022/06/29 05:51:35;;;;;;;3.60;2.07;;;20.40;99.90;;;;;;5074453;28;20448;-53
2022/06/29 05:54:01;;;;;;;2.20;2.10;;;20.40;99.90;;;;;;5074266;28;20558;-50
2022/06/29 05:56:29;;;;;;;2.53;2.43;;;20.20;99.90;;;;;;5074393;28;20479;-53
2022/06/29 05:58:56;;;;;;;2.17;2.07;;;20.30;99.90;;;;;;5074143;28;20964;-51
2022/06/29 06:01:22;;;;;;;2.63;2.53;;;20.30;99.90;;;;;;5074302;28;20439;-55
2022/06/29 06:03:49;;;;;;;2.50;2.27;;;20.40;99.90;;;;;;5074260;28;20447;-55
2022/06/29 06:06:15;;;;;;;2.30;1.73;;;20.50;99.90;;;;;;5073951;28;20562;-52
2022/06/29 06:08:42;;;;;;;2.03;1.83;;;20.70;99.90;;;;;;5074074;28;20455;-53
2022/06/29 06:11:08;;;;;;;5.90;2.13;;;20.90;99.90;;;;;;5074089;28;20447;-52
2022/06/29 06:13:36;;;;;;;4.03;2.10;;;21.00;99.90;;;;;;5073971;28;20440;-51
2022/06/29 06:16:02;;;;;;;1.80;1.70;;;20.80;99.90;;;;;;5073970;28;20448;-54
2022/06/29 06:18:29;;;;;;;2.37;2.17;;;20.80;99.90;;;;;;5073897;28;20447;-53
2022/06/29 06:20:56;;;;;;;2.50;2.07;;;20.80;99.90;;;;;;5073831;28;20867;-53
2022/06/29 06:23:22;;;;;;;2.47;1.80;;;20.80;99.90;;;;;;5073931;28;20451;-53
2022/06/29 06:25:49;;;;;;;1.80;1.70;;;20.90;99.90;;;;;;5073825;28;20490;-55
2022/06/29 06:28:15;;;;;;;3.23;2.10;;;20.80;99.90;;;;;;5073714;28;20474;-53
2022/06/29 06:30:43;;;;;;;2.00;1.70;;;20.90;99.90;;;;;;5073754;28;20451;-50
2022/06/29 06:33:10;;;;;;;1.60;1.50;;;20.90;99.90;;;;;;5073606;28;20452;-55
2022/06/29 06:35:37;;;;;;;2.47;1.87;;;21.00;99.90;;;;;;5073558;28;20447;-54
2022/06/29 06:38:03;;;;;;;2.20;2.00;;;21.10;99.90;;;;;;5073678;28;20447;-55
2022/06/29 06:43:14;;;;;;;4.03;3.23;;;21.20;99.90;;;;;;5073333;28;20541;-55
2022/06/29 06:45:43;;;;;;;2.23;1.77;;;21.40;99.90;;;;;;5073390;28;20484;-55
2022/06/29 06:48:09;;;;;;;1.93;1.73;;;21.30;99.90;;;;;;5073068;28;20447;-53
2022/06/29 06:50:36;;;;;;;3.03;2.63;;;21.50;99.90;;;;;;5073451;28;20453;-55
2022/06/29 06:53:02;;;;;;;1.40;1.30;;;21.50;99.90;;;;;;5073267;28;20458;-57
2022/06/29 06:55:29;;;;;;;2.27;1.60;;;21.40;99.90;;;;;;5073273;28;20455;-57
2022/06/29 06:57:56;;;;;;;3.53;1.83;;;21.70;99.90;;;;;;5072927;28;20471;-55
2022/06/29 07:00:22;;;;;;;1.60;1.50;;;21.80;99.90;;;;;;5073171;28;20443;-56
2022/06/29 07:02:50;;;;;;;2.50;1.73;;;22.10;99.90;;;;;;5073090;28;20948;-57
2022/06/29 07:05:17;;;;;;;1.37;1.27;;;22.00;99.90;;;;;;5073116;28;20481;-55
2022/06/29 07:07:43;;;;;;;4.43;1.23;;;22.00;99.90;;;;;;5073173;28;20452;-54
2022/06/29 07:10:10;;;;;;;3.20;1.27;;;21.80;99.90;;;;;;5073115;28;20462;-57
2022/06/29 07:12:36;;;;;;;1.57;1.30;;;22.00;99.90;;;;;;5073028;28;20806;-55
2022/06/29 07:15:04;;;;;;;1.80;1.70;;;22.10;99.90;;;;;;5072888;28;20448;-54
2022/06/29 07:17:31;;;;;;;1.50;1.33;;;22.20;99.90;;;;;;5072821;28;20546;-56
2022/06/29 07:19:58;;;;;;;1.40;1.30;;;22.30;99.90;;;;;;5073057;28;20546;-53
2022/06/29 07:22:25;;;;;;;3.30;1.30;;;22.30;99.90;;;;;;5072901;28;20934;-57
2022/06/29 07:24:51;;;;;;;1.10;1.00;;;22.40;99.90;;;;;;5072939;28;20457;-54
2022/06/29 07:27:18;;;;;;;1.53;1.43;;;22.40;99.90;;;;;;5072680;28;20482;-53
2022/06/29 07:29:44;;;;;;;2.90;1.43;;;22.30;99.90;;;;;;5072555;28;20458;-56
2022/06/29 07:32:11;;;;;;;1.40;1.30;;;22.40;99.90;;;;;;5072756;28;20454;-56
2022/06/29 07:34:38;;;;;;;1.63;1.40;;;22.60;99.90;;;;;;5072218;28;20454;-52
2022/06/29 07:37:05;;;;;;;1.83;1.13;;;22.40;99.90;;;;;;5072601;28;20453;-54
2022/06/29 07:39:32;;;;;;;3.33;1.60;;;22.50;99.90;;;;;;5072762;28;20479;-55
2022/06/29 07:41:58;;;;;;;2.90;1.73;;;22.50;99.90;;;;;;5072289;28;20535;-57
2022/06/29 07:44:25;;;;;;;2.37;1.60;;;22.40;99.90;;;;;;5072185;28;20504;-53
2022/06/29 07:46:51;;;;;;;1.47;1.37;;;22.40;99.90;;;;;;5072660;28;20911;-54
2022/06/29 07:49:18;;;;;;;1.10;1.00;;;22.50;99.90;;;;;;5072778;28;20447;-52
2022/06/29 07:51:44;;;;;;;2.27;1.20;;;22.60;99.90;;;;;;5072548;28;20443;-55
2022/06/29 07:54:12;;;;;;;1.57;1.20;;;22.60;99.90;;;;;;5069850;28;20451;-53
2022/06/29 07:56:39;;;;;;;1.30;1.20;;;22.40;99.90;;;;;;5069189;28;20503;-59
2022/06/29 07:59:05;;;;;;;1.47;1.00;;;22.40;99.90;;;;;;5068015;28;20457;-60
2022/06/29 08:01:32;;;;;;;1.30;1.20;;;22.20;99.90;;;;;;5075075;28;20448;-61
2022/06/29 08:03:58;;;;;;;1.63;1.50;;;22.30;99.90;;;;;;5075256;28;20530;-58
2022/06/29 08:06:26;;;;;;;1.30;1.20;;;22.10;99.90;;;;;;5076197;28;20475;-57
2022/06/29 08:08:53;;;;;;;1.30;1.20;;;22.10;99.90;;;;;;5075778;28;20486;-57
2022/06/29 08:11:20;;;;;;;1.70;1.47;;;22.20;99.90;;;;;;5075317;28;20451;-60
2022/06/29 08:13:47;;;;;;;1.83;1.40;;;22.20;99.90;;;;;;5070144;28;20453;-59
2022/06/29 08:16:13;;;;;;;2.23;1.50;;;22.30;99.90;;;;;;5056598;28;20453;-58
2022/06/29 08:18:40;;;;;;;2.00;1.40;;;22.20;99.90;;;;;;5069552;28;20455;-59
2022/06/29 08:21:07;;;;;;;3.57;1.40;;;22.20;99.90;;;;;;5062653;28;20447;-56
2022/06/29 08:23:34;;;;;;;2.30;1.20;;;22.20;99.90;;;;;;5058020;28;20455;-60
2022/06/29 08:26:01;;;;;;;1.40;1.30;;;22.30;99.90;;;;;;5055635;28;20472;-61
2022/06/29 08:28:28;;;;;;;2.60;1.30;;;22.30;99.90;;;;;;5068444;28;20505;-60
2022/06/29 08:30:55;;;;;;;1.30;1.20;;;22.40;99.90;;;;;;5075922;28;20452;-59
2022/06/29 08:33:22;;;;;;;2.40;1.50;;;22.50;99.90;;;;;;5075588;28;20496;-61
2022/06/29 08:35:49;;;;;;;2.70;1.73;;;22.40;99.90;;;;;;5075884;28;20469;-59
2022/06/29 08:38:15;;;;;;;2.17;1.60;;;22.80;99.90;;;;;;5074584;28;20958;-59
2022/06/29 08:40:45;;;;;;;0.90;0.90;;;22.80;99.90;;;;;;5074503;28;20448;-55
2022/06/29 08:43:13;;;;;;;2.93;1.90;;;22.70;99.90;;;;;;5075454;28;20934;-57
2022/06/29 08:45:43;;;;;;;1.30;1.20;;;22.70;99.90;;;;;;5075653;28;20447;-56
2022/06/29 08:48:09;;;;;;;1.40;1.27;;;22.80;99.90;;;;;;5074584;28;20455;-59
2022/06/29 08:50:38;;;;;;;2.23;1.40;;;23.00;99.90;;;;;;5073775;28;20536;-59
2022/06/29 08:53:06;;;;;;;1.20;1.10;;;23.10;99.90;;;;;;5068407;28;20961;-59
2022/06/29 08:55:37;;;;;;;2.50;1.27;;;23.10;99.90;;;;;;5073193;28;20969;-58
2022/06/29 08:58:06;;;;;;;2.50;1.20;;;23.20;99.90;;;;;;5074186;28;20570;-59
2022/06/29 09:00:36;;;;;;;2.20;1.13;;;23.10;99.90;;;;;;5074199;28;20500;-60
2022/06/29 09:03:04;;;;;;;2.03;1.30;;;23.40;99.90;;;;;;5068932;28;20539;-59
2022/06/29 09:05:31;;;;;;;1.20;1.10;;;23.30;99.90;;;;;;5069588;28;20454;-58
2022/06/29 09:07:57;;;;;;;1.33;1.10;;;23.20;99.90;;;;;;5074408;28;20538;-58
2022/06/29 09:10:24;;;;;;;1.23;1.13;;;23.10;99.90;;;;;;5075338;28;20451;-58
2022/06/29 09:12:52;;;;;;;3.57;1.10;;;23.10;99.90;;;;;;5073894;28;20788;-55
2022/06/29 09:15:31;;;;;;;4.80;1.53;;;23.20;99.90;;;;;;5073544;28;20459;-59
2022/06/29 09:17:57;;;;;;;1.30;1.20;;;23.20;99.90;;;;;;5072383;28;21011;-57
2022/06/29 09:20:36;;;;;;;1.50;1.10;;;23.30;99.90;;;;;;5075021;28;20444;-58
2022/06/29 09:23:03;;;;;;;1.77;1.10;;;23.50;99.90;;;;;;5074529;28;20470;-58
2022/06/29 09:25:32;;;;;;;1.57;1.03;;;23.60;99.90;;;;;;5073962;28;20542;-58
2022/06/29 09:27:58;;;;;;;1.40;1.30;;;23.60;99.90;;;;;;5071041;28;20551;-58
2022/06/29 09:30:27;;;;;;;1.50;1.10;;;23.70;99.90;;;;;;5073839;28;20969;-60
2022/06/29 09:33:00;;;;;;;1.30;1.10;;;23.40;99.90;;;;;;5074527;28;20451;-60
2022/06/29 09:35:27;;;;;;;2.23;1.10;;;23.40;99.90;;;;;;5069920;28;20531;-59
2022/06/29 09:37:54;;;;;;;1.47;1.37;;;23.20;99.90;;;;;;5054650;28;20551;-59
2022/06/29 09:40:20;;;;;;;1.20;1.10;;;23.00;99.90;;;;;;5054782;28;20448;-58
2022/06/29 09:42:47;;;;;;;1.13;1.00;;;23.20;99.90;;;;;;5058684;28;21002;-50
2022/06/29 09:45:13;;;;;;;2.03;1.10;;;23.20;99.90;;;;;;5067999;28;20540;-55
2022/06/29 09:47:42;;;;;;;1.27;1.17;;;23.20;99.90;;;;;;5073836;28;20562;-57
2022/06/29 09:50:10;;;;;;;1.83;1.10;;;23.40;99.90;;;;;;5071971;28;20447;-57
2022/06/29 09:52:39;;;;;;;1.63;0.90;;;23.30;99.90;;;;;;5074120;28;20475;-57
2022/06/29 09:55:07;;;;;;;1.70;1.40;;;23.40;99.90;;;;;;5063937;28;20455;-60
2022/06/29 09:57:37;;;;;;;1.57;1.20;;;23.40;99.90;;;;;;5059922;28;20475;-60
2022/06/29 10:02:51;;;;;;;1.80;1.60;;;23.60;99.90;;;;;;5054502;28;20454;-60
2022/06/29 10:05:21;;;;;;;1.67;1.20;;;23.60;99.90;;;;;;5070182;28;20914;-60
2022/06/29 10:07:50;;;;;;;2.83;1.20;;;23.50;99.90;;;;;;5073547;28;20471;-60
2022/06/29 10:10:19;;;;;;;3.77;1.30;;;23.50;99.90;;;;;;5066811;28;20456;-60
2022/06/29 10:16:06;;;;;;;2.03;1.50;;;23.60;99.90;;;;;;5054925;28;20605;-60
2022/06/29 10:18:45;;;;;;;1.40;1.20;;;23.70;99.90;;;;;;5073720;28;20850;-58
2022/06/29 10:21:18;;;;;;;1.10;1.00;;;23.60;99.90;;;;;;5068226;28;20483;-57
2022/06/29 10:23:48;;;;;;;1.00;0.80;;;23.80;99.90;;;;;;5073606;28;20536;-57
2022/06/29 10:26:44;;;;;;;1.20;1.10;;;23.90;99.90;;;;;;5071589;28;20554;-58
2022/06/29 10:29:34;;;;;;;1.53;1.10;;;24.00;99.90;;;;;;5072965;28;20543;-58
2022/06/29 10:32:14;;;;;;;1.20;1.10;;;23.80;99.90;;;;;;5071273;28;20501;-58
2022/06/29 10:37:22;;;;;;;1.10;1.00;;;23.90;99.90;;;;;;5071816;28;20469;-58
2022/06/29 10:39:58;;;;;;;1.10;0.90;;;23.80;99.90;;;;;;5073288;28;20644;-58
2022/06/29 10:45:27;;;;;;;1.10;1.00;;;23.60;99.90;;;;;;5070998;28;20458;-55
2022/06/29 10:48:30;;;;;;;3.93;1.10;;;23.50;99.90;;;;;;5071757;28;20219;-59
2022/06/29 10:50:57;;;;;;;0.90;0.90;;;23.50;99.90;;;;;;4979999;28;20947;-58
2022/06/29 10:53:24;;;;;;;1.00;0.90;;;23.60;99.90;;;;;;4985909;28;20452;-60
2022/06/29 10:55:54;;;;;;;2.70;1.00;;;23.60;99.90;;;;;;5021915;28;20542;-60
2022/06/29 10:58:21;;;;;;;1.20;1.00;;;23.70;99.90;;;;;;5070286;28;20919;-58
2022/06/29 11:00:50;;;;;;;1.50;0.90;;;23.60;99.90;;;;;;5061851;28;20475;-57
2022/06/29 11:03:19;;;;;;;1.87;1.00;;;23.80;99.90;;;;;;5061410;28;20458;-59
2022/06/29 11:14:06;;;;;;;1.27;1.17;;;23.50;99.90;;;;;;5063211;28;20439;-58
2022/06/29 11:16:35;;;;;;;1.33;1.10;;;23.60;99.90;;;;;;5052770;28;20562;-58
2022/06/29 11:19:02;;;;;;;1.67;0.93;;;23.80;99.90;;;;;;5052613;28;20495;-58
2022/06/29 11:21:29;;;;;;;1.63;1.37;;;23.80;99.90;;;;;;5059242;28;20452;-58
2022/06/29 11:23:57;;;;;;;2.10;1.03;;;23.80;99.90;;;;;;5053913;28;20452;-58
2022/06/29 11:26:27;;;;;;;3.90;1.43;;;23.70;99.90;;;;;;5052828;28;20448;-58
2022/06/29 11:28:57;;;;;;;1.33;1.10;;;23.70;99.90;;;;;;5053094;28;20496;-58
2022/06/29 11:31:24;;;;;;;1.20;1.10;;;23.80;99.90;;;;;;5052271;28;20448;-58
2022/06/29 11:33:53;;;;;;;1.63;1.40;;;24.00;99.90;;;;;;5071876;28;20462;-59
2022/06/29 11:36:21;;;;;;;1.93;1.30;;;24.10;99.90;;;;;;5071704;28;20966;-55
2022/06/29 11:38:50;;;;;;;3.47;1.63;;;24.10;99.90;;;;;;5071795;28;20451;-58
2022/06/29 11:41:18;;;;;;;3.00;1.30;;;24.20;99.90;;;;;;5071341;28;20458;-58
2022/06/29 11:43:46;;;;;;;2.07;1.53;;;24.40;99.90;;;;;;5062841;28;20448;-59
2022/06/29 11:46:21;;;;;;;3.00;1.80;;;24.80;99.90;;;;;;5052648;28;20449;-57
2022/06/29 11:51:36;;;;;;;2.10;1.40;;;24.90;99.90;;;;;;5072608;28;20459;-57
2022/06/29 11:54:06;;;;;;;1.50;1.40;;;25.10;99.90;;;;;;5072493;28;20447;-57
2022/06/29 11:56:33;;;;;;;2.50;1.67;;;24.70;99.90;;;;;;5071017;28;20479;-54
2022/06/29 11:59:05;;;;;;;1.57;1.37;;;24.40;99.90;;;;;;5072401;28;20942;-53
2022/06/29 12:01:31;;;;;;;1.67;1.40;;;23.80;99.90;;;;;;5072496;28;20483;-55
2022/06/29 12:03:59;;;;;;;1.47;1.20;;;23.80;99.90;;;;;;5072317;28;20455;-55
2022/06/29 12:06:28;;;;;;;3.13;1.33;;;24.10;99.90;;;;;;5070048;28;20897;-59
2022/06/29 12:08:55;;;;;;;4.73;1.43;;;24.10;99.90;;;;;;5072008;28;20931;-58
2022/06/29 12:11:23;;;;;;;1.27;1.17;;;24.10;99.90;;;;;;5054236;28;20879;-60
2022/06/29 12:13:50;;;;;;;1.47;1.20;;;23.80;99.90;;;;;;5062480;28;20443;-58
2022/06/29 12:16:18;;;;;;;3.80;1.20;;;23.60;99.90;;;;;;5072089;28;20450;-59
2022/06/29 12:18:45;;;;;;;1.40;1.30;;;23.80;99.90;;;;;;5069391;28;20447;-57
2022/06/29 12:21:12;;;;;;;3.50;1.30;;;23.90;99.90;;;;;;5071643;28;20522;-58
2022/06/29 12:23:39;;;;;;;1.50;1.40;;;23.90;99.90;;;;;;5071721;28;20450;-59
2022/06/29 12:26:06;;;;;;;1.50;1.40;;;23.90;99.90;;;;;;5072396;28;20193;-59
2022/06/29 12:28:32;;;;;;;1.67;1.57;;;24.00;99.90;;;;;;5072158;28;20479;-59
2022/06/29 12:30:59;;;;;;;1.60;1.50;;;24.00;99.90;;;;;;5072003;28;20447;-58
2022/06/29 12:33:27;;;;;;;1.40;1.30;;;24.00;99.90;;;;;;5072194;28;20554;-59
2022/06/29 12:35:54;;;;;;;2.50;1.50;;;24.00;99.90;;;;;;5069675;28;20542;-61
2022/06/29 12:38:20;;;;;;;2.80;1.10;;;23.90;99.90;;;;;;5071278;28;20230;-61
2022/06/29 12:40:47;;;;;;;2.73;1.40;;;23.70;99.90;;;;;;5052466;28;20451;-61
2022/06/29 12:43:14;;;;;;;1.30;1.20;;;24.10;99.90;;;;;;5052245;28;20458;-59
2022/06/29 12:45:40;;;;;;;1.87;1.37;;;24.00;99.90;;;;;;5057875;28;20938;-59
2022/06/29 12:48:07;;;;;;;1.30;1.20;;;24.10;99.90;;;;;;5074854;28;20475;-59
2022/06/29 12:50:35;;;;;;;1.70;1.30;;;24.10;99.90;;;;;;5078815;28;20446;-60
2022/06/29 12:53:01;;;;;;;1.97;1.20;;;24.10;99.90;;;;;;5077944;28;20447;-58
2022/06/29 12:55:28;;;;;;;4.10;1.53;;;24.20;99.90;;;;;;5070587;28;20451;-58
2022/06/29 12:57:54;;;;;;;1.43;1.33;;;24.20;99.90;;;;;;5073721;28;21017;-60
2022/06/29 13:00:21;;;;;;;1.30;1.20;;;24.30;99.90;;;;;;5075011;28;20526;-59
2022/06/29 13:02:47;;;;;;;1.60;1.50;;;23.90;99.90;;;;;;5075073;28;20993;-60
2022/06/29 13:05:14;;;;;;;3.23;1.20;;;23.70;99.90;;;;;;5073311;28;20451;-60
2022/06/29 13:07:42;;;;;;;1.40;1.20;;;23.80;99.90;;;;;;5073957;28;20497;-60
2022/06/29 13:10:09;;;;;;;2.23;1.47;;;24.00;99.90;;;;;;5075149;28;20458;-59
2022/06/29 13:12:36;;;;;;;1.80;1.40;;;23.90;99.90;;;;;;5073983;28;20538;-60
2022/06/29 13:15:03;;;;;;;3.43;1.70;;;23.60;99.90;;;;;;5075197;28;20871;-59
2022/06/29 13:17:30;;;;;;;3.00;2.10;;;23.60;99.90;;;;;;5075283;28;20521;-61
2022/06/29 13:19:57;;;;;;;5.67;1.93;;;23.80;99.90;;;;;;5073728;28;20538;-58
2022/06/29 13:22:24;;;;;;;2.10;1.43;;;23.80;99.90;;;;;;5075184;28;20888;-58